Time;durP1;ratioP1;P1;durP2;ratioP2;P2;SDS_P1;SDS_P2;PMS_P1;PMS_P2;Temp;Humidity;BMP_temperature;BMP_pressure;BME280_temperature;BME280_humidity;BME280_pressure;Samples;Min_cycle;Max_cycle;Signal;HPM_P1;HPM_P2
2021/07/09 00:01:06;;;;;;;;;;;18.90;99.90;;;;;;5075639;28;19924;-72
2021/07/09 00:03:34;;;;;;;;;;;19.00;99.90;;;;;;5081603;28;19929;-72
2021/07/09 00:06:01;;;;;;;;;;;18.90;99.90;;;;;;5083020;28;19939;-70
2021/07/09 00:08:28;;;;;;;;;;;19.00;99.90;;;;;;5080078;28;19993;-72
2021/07/09 00:10:54;;;;;;;;;;;19.00;99.90;;;;;;5081143;28;19928;-72
2021/07/09 00:13:21;;;;;;;;;;;18.90;99.90;;;;;;5088434;28;19928;-72
2021/07/09 00:15:48;;;;;;;;;;;18.90;99.90;;;;;;5085247;28;19924;-71
2021/07/09 00:18:15;;;;;;;;;;;18.90;99.90;;;;;;5081231;28;19978;-73
2021/07/09 00:20:42;;;;;;;;;;;18.90;99.90;;;;;;5081427;28;20648;-73
2021/07/09 00:23:09;;;;;;;;;;;18.80;99.90;;;;;;5078701;28;19925;-72
2021/07/09 00:25:36;;;;;;;;;;;18.80;99.90;;;;;;5085192;28;19993;-73
2021/07/09 00:28:04;;;;;;;;;;;18.80;99.90;;;;;;5081779;28;19924;-72
2021/07/09 00:30:31;;;;;;;;;;;18.80;99.90;;;;;;5072231;28;19929;-73
2021/07/09 00:32:58;;;;;;;;;;;18.80;99.90;;;;;;5084078;28;19982;-73
2021/07/09 00:35:24;;;;;;;;;;;18.70;99.90;;;;;;5081269;28;19924;-73
2021/07/09 00:37:51;;;;;;;;;;;18.80;99.90;;;;;;5076771;28;20264;-73
2021/07/09 00:40:18;;;;;;;;;;;18.90;99.90;;;;;;5079898;28;19933;-73
2021/07/09 00:42:45;;;;;;;;;;;18.80;99.90;;;;;;5079199;28;20352;-73
2021/07/09 00:45:12;;;;;;;;;;;18.90;99.90;;;;;;5078650;28;19936;-72
2021/07/09 00:47:42;;;;;;;;;;;18.80;99.90;;;;;;5078881;28;19978;-72
2021/07/09 00:50:09;;;;;;;;;;;18.80;99.90;;;;;;5083455;28;20458;-72
2021/07/09 00:52:36;;;;;;;;;;;18.90;99.90;;;;;;5079276;28;19932;-72
2021/07/09 00:55:04;;;;;;;;;;;18.90;99.90;;;;;;5086452;28;19977;-72
2021/07/09 00:57:31;;;;;;;;;;;18.70;99.90;;;;;;5073726;28;19993;-72
2021/07/09 00:59:58;;;;;;;;;;;18.70;99.90;;;;;;5077355;28;19925;-72
2021/07/09 01:02:25;;;;;;;;;;;18.70;99.90;;;;;;5107771;27;19932;-72
2021/07/09 01:04:56;;;;;;;;;;;18.70;99.90;;;;;;5075644;28;19931;-72
2021/07/09 01:07:26;;;;;;;;;;;18.70;99.90;;;;;;5077477;28;19924;-72
2021/07/09 01:09:52;;;;;;;;;;;18.70;99.90;;;;;;5081087;28;19924;-72
2021/07/09 01:12:19;;;;;;;;;;;18.80;99.90;;;;;;5077825;28;19929;-72
2021/07/09 01:14:47;;;;;;;;;;;18.70;99.90;;;;;;5089529;28;19924;-72
2021/07/09 01:17:14;;;;;;;;;;;18.70;99.90;;;;;;5085507;28;20409;-73
2021/07/09 01:19:41;;;;;;;;;;;18.70;99.90;;;;;;5084823;28;19928;-73
2021/07/09 01:22:08;;;;;;;;;;;18.60;99.90;;;;;;5086286;28;19924;-73
2021/07/09 01:24:35;;;;;;;;;;;18.70;99.90;;;;;;5085005;28;19933;-73
2021/07/09 01:27:03;;;;;;;;;;;18.70;99.90;;;;;;5088940;28;19931;-73
2021/07/09 01:29:30;;;;;;;;;;;18.70;99.90;;;;;;5087371;28;19974;-73
2021/07/09 01:31:57;;;;;;;;;;;18.80;99.90;;;;;;5080739;28;20455;-73
2021/07/09 01:34:24;;;;;;;;;;;18.80;99.90;;;;;;5078127;28;19928;-75
2021/07/09 01:36:52;;;;;;;;;;;18.70;99.90;;;;;;5080001;28;19977;-75
2021/07/09 01:39:19;;;;;;;;;;;18.60;99.90;;;;;;5074942;28;19925;-75
2021/07/09 01:41:46;;;;;;;;;;;18.60;99.90;;;;;;5082832;28;19966;-75
2021/07/09 01:44:13;;;;;;;;;;;18.60;99.90;;;;;;5084966;28;19928;-75
2021/07/09 01:46:40;;;;;;;;;;;18.70;99.90;;;;;;5083156;28;19955;-75
2021/07/09 01:49:06;;;;;;;;;;;18.60;99.90;;;;;;5082610;28;19924;-75
2021/07/09 01:51:33;;;;;;;;;;;18.60;99.90;;;;;;5086131;28;19928;-75
2021/07/09 01:54:00;;;;;;;;;;;18.60;99.90;;;;;;5086169;28;20317;-75
2021/07/09 01:56:27;;;;;;;;;;;18.60;99.90;;;;;;5087575;28;20011;-75
2021/07/09 01:58:53;;;;;;;;;;;18.60;99.90;;;;;;5085180;28;19932;-75
2021/07/09 02:01:20;;;;;;;;;;;18.60;99.90;;;;;;5107728;27;19936;-75
2021/07/09 02:03:47;;;;;;;;;;;18.60;99.90;;;;;;5080646;28;20378;-75
2021/07/09 02:06:14;;;;;;;;;;;18.60;99.90;;;;;;5082445;28;20282;-75
2021/07/09 02:08:41;;;;;;;;;;;18.50;99.90;;;;;;5088343;28;20330;-75
2021/07/09 02:11:08;;;;;;;;;;;18.50;99.90;;;;;;5086190;28;19924;-73
2021/07/09 02:13:34;;;;;;;;;;;18.50;99.90;;;;;;5087711;28;20363;-73
2021/07/09 02:16:01;;;;;;;;;;;18.60;99.90;;;;;;5081998;28;19963;-73
2021/07/09 02:18:28;;;;;;;;;;;18.50;99.90;;;;;;5083843;28;20371;-73
2021/07/09 02:20:57;;;;;;;;;;;18.60;99.90;;;;;;5077777;28;20386;-75
2021/07/09 02:23:24;;;;;;;;;;;18.50;99.90;;;;;;5083912;28;20379;-75
2021/07/09 02:25:51;;;;;;;;;;;18.50;99.90;;;;;;5088001;28;19928;-74
2021/07/09 02:28:18;;;;;;;;;;;18.50;99.90;;;;;;5078616;28;19924;-74
2021/07/09 02:30:45;;;;;;;;;;;18.50;99.90;;;;;;5088832;28;19939;-74
2021/07/09 02:33:12;;;;;;;;;;;18.50;99.90;;;;;;5085416;28;19928;-74
2021/07/09 02:35:39;;;;;;;;;;;18.50;99.90;;;;;;5076078;28;19924;-74
2021/07/09 02:38:07;;;;;;;;;;;18.60;99.90;;;;;;5085635;28;19963;-75
2021/07/09 02:40:34;;;;;;;;;;;18.60;99.90;;;;;;5082199;28;19924;-74
2021/07/09 02:43:03;;;;;;;;;;;18.70;99.90;;;;;;5078244;28;19932;-74
2021/07/09 02:45:30;;;;;;;;;;;18.70;99.90;;;;;;5093107;28;19924;-74
2021/07/09 02:48:13;;;;;;;;;;;18.60;99.90;;;;;;5088420;28;20007;-74
2021/07/09 02:50:39;;;;;;;;;;;18.50;99.90;;;;;;5093857;28;19924;-74
2021/07/09 02:53:06;;;;;;;;;;;18.50;99.90;;;;;;5090706;28;19973;-74
2021/07/09 02:55:33;;;;;;;;;;;18.50;99.90;;;;;;5087480;28;19928;-74
2021/07/09 02:58:00;;;;;;;;;;;18.50;99.90;;;;;;5081390;28;19924;-74
2021/07/09 03:00:27;;;;;;;;;;;18.40;99.90;;;;;;5081577;28;19924;-74
2021/07/09 03:02:54;;;;;;;;;;;18.40;99.90;;;;;;5086527;28;19935;-74
2021/07/09 03:05:21;;;;;;;;;;;18.40;99.90;;;;;;5080858;28;19939;-74
2021/07/09 03:07:48;;;;;;;;;;;18.40;99.90;;;;;;5080424;28;20310;-74
2021/07/09 03:10:15;;;;;;;;;;;18.40;99.90;;;;;;5084383;28;19949;-74
2021/07/09 03:12:41;;;;;;;;;;;18.40;99.90;;;;;;5075051;28;19959;-74
2021/07/09 03:15:09;;;;;;;;;;;18.50;99.90;;;;;;5082114;28;19924;-74
2021/07/09 03:17:36;;;;;;;;;;;18.50;99.90;;;;;;5080809;28;19940;-74
2021/07/09 03:20:05;;;;;;;;;;;18.40;99.90;;;;;;5085649;28;19925;-74
2021/07/09 03:22:32;;;;;;;;;;;18.50;99.90;;;;;;5078090;28;20019;-73
2021/07/09 03:24:58;;;;;;;;;;;18.50;99.90;;;;;;5111043;27;19924;-73
2021/07/09 03:27:25;;;;;;;;;;;18.50;99.90;;;;;;5087926;28;19970;-73
2021/07/09 03:29:52;;;;;;;;;;;18.50;99.90;;;;;;5085921;28;19931;-74
2021/07/09 03:32:19;;;;;;;;;;;18.50;99.90;;;;;;5081285;28;20276;-73
2021/07/09 03:34:45;;;;;;;;;;;18.50;99.90;;;;;;5089327;28;20333;-71
2021/07/09 03:37:12;;;;;;;;;;;18.50;99.90;;;;;;5089971;28;19924;-73
2021/07/09 03:39:39;;;;;;;;;;;18.50;99.90;;;;;;5085615;28;19925;-73
2021/07/09 03:42:06;;;;;;;;;;;18.50;99.90;;;;;;5079078;28;19939;-73
2021/07/09 03:44:33;;;;;;;;;;;18.50;99.90;;;;;;5110996;27;19981;-73
2021/07/09 03:46:59;;;;;;;;;;;18.50;99.90;;;;;;5086931;28;20267;-72
2021/07/09 03:49:26;;;;;;;;;;;18.40;99.90;;;;;;5093631;28;19977;-73
2021/07/09 03:51:53;;;;;;;;;;;18.40;99.90;;;;;;5120135;27;19924;-73
2021/07/09 03:54:20;;;;;;;;;;;18.40;99.90;;;;;;5087647;28;19932;-73
2021/07/09 03:56:47;;;;;;;;;;;18.30;99.90;;;;;;5077866;28;19925;-73
2021/07/09 03:59:13;;;;;;;;;;;18.30;99.90;;;;;;5087000;28;20373;-72
2021/07/09 04:01:41;;;;;;;;;;;18.10;99.90;;;;;;5086230;28;19924;-73
2021/07/09 04:04:08;;;;;;;;;;;18.00;99.90;;;;;;5090160;28;19977;-73
2021/07/09 04:06:36;;;;;;;;;;;18.00;99.90;;;;;;5081870;28;19935;-72
2021/07/09 04:09:03;;;;;;;;;;;18.00;99.90;;;;;;5075340;28;19974;-73
2021/07/09 04:11:30;;;;;;;;;;;18.10;99.90;;;;;;5076826;28;19947;-73
2021/07/09 04:13:57;;;;;;;;;;;18.10;99.90;;;;;;5089426;28;20382;-72
2021/07/09 04:16:23;;;;;;;;;;;18.10;99.90;;;;;;5079993;28;20009;-72
2021/07/09 04:18:50;;;;;;;;;;;18.00;99.90;;;;;;5081478;28;19978;-73
2021/07/09 04:21:17;;;;;;;;;;;17.90;99.90;;;;;;5087698;28;19928;-72
2021/07/09 04:23:44;;;;;;;;;;;17.80;99.90;;;;;;5077260;28;19996;-72
2021/07/09 04:26:14;;;;;;;;;;;17.80;99.90;;;;;;5088870;28;20008;-72
2021/07/09 04:28:41;;;;;;;;;;;17.80;99.90;;;;;;5083076;28;19924;-72
2021/07/09 04:31:08;;;;;;;;;;;17.90;99.90;;;;;;5075614;28;19925;-72
2021/07/09 04:33:35;;;;;;;;;;;18.00;99.90;;;;;;5088494;28;19985;-73
2021/07/09 04:36:01;;;;;;;;;;;17.80;99.90;;;;;;5078857;28;19969;-73
2021/07/09 04:38:28;;;;;;;;;;;17.80;99.90;;;;;;5079297;28;20349;-72
2021/07/09 04:40:55;;;;;;;;;;;17.70;99.90;;;;;;5083662;28;19925;-72
2021/07/09 04:43:22;;;;;;;;;;;17.60;99.90;;;;;;5083680;28;19929;-72
2021/07/09 04:45:48;;;;;;;;;;;17.60;99.90;;;;;;5075661;28;19924;-72
2021/07/09 04:48:15;;;;;;;;;;;17.50;99.90;;;;;;5089073;28;19969;-74
2021/07/09 04:50:42;;;;;;;;;;;17.60;99.90;;;;;;5089146;28;19944;-71
2021/07/09 04:53:09;;;;;;;;;;;17.60;99.90;;;;;;5087611;28;19924;-72
2021/07/09 04:55:36;;;;;;;;;;;17.60;99.90;;;;;;5083196;28;19924;-72
2021/07/09 04:58:03;;;;;;;;;;;17.60;99.90;;;;;;5075467;28;19932;-72
2021/07/09 05:00:29;;;;;;;;;;;17.50;99.90;;;;;;5088048;28;19924;-72
2021/07/09 05:02:58;;;;;;;;;;;17.50;99.90;;;;;;5083347;28;19939;-73
2021/07/09 05:05:24;;;;;;;;;;;17.50;99.90;;;;;;5080422;28;19924;-73
2021/07/09 05:07:51;;;;;;;;;;;17.40;99.90;;;;;;5089133;28;19924;-73
2021/07/09 05:10:18;;;;;;;;;;;17.40;99.90;;;;;;5081639;28;19924;-72
2021/07/09 05:12:45;;;;;;;;;;;17.50;99.90;;;;;;5077749;28;19924;-72
2021/07/09 05:15:12;;;;;;;;;;;17.50;99.90;;;;;;5087880;28;19928;-72
2021/07/09 05:17:39;;;;;;;;;;;17.60;99.90;;;;;;5083259;28;20427;-72
2021/07/09 05:20:06;;;;;;;;;;;17.50;99.90;;;;;;5082929;28;19924;-71
2021/07/09 05:22:33;;;;;;;;;;;17.50;99.90;;;;;;5083151;28;19970;-72
2021/07/09 05:25:00;;;;;;;;;;;17.60;99.90;;;;;;5085713;28;20268;-72
2021/07/09 05:27:28;;;;;;;;;;;17.60;99.90;;;;;;5075627;28;20290;-72
2021/07/09 05:29:55;;;;;;;;;;;17.60;99.90;;;;;;5079394;28;19951;-72
2021/07/09 05:32:23;;;;;;;;;;;17.70;99.90;;;;;;5082451;28;20325;-72
2021/07/09 05:34:51;;;;;;;;;;;17.70;99.90;;;;;;5074504;28;19932;-72
2021/07/09 05:37:18;;;;;;;;;;;17.80;99.90;;;;;;5075776;28;19924;-72
2021/07/09 05:39:45;;;;;;;;;;;17.70;99.90;;;;;;5081752;28;20413;-71
2021/07/09 05:42:12;;;;;;;;;;;17.90;99.90;;;;;;5086184;28;19951;-73
2021/07/09 05:44:39;;;;;;;;;;;17.90;99.90;;;;;;5087647;28;19932;-72
2021/07/09 05:47:06;;;;;;;;;;;18.00;99.90;;;;;;5081042;28;19924;-73
2021/07/09 05:49:34;;;;;;;;;;;18.00;99.90;;;;;;5085769;28;19934;-72
2021/07/09 05:52:01;;;;;;;;;;;18.00;99.90;;;;;;5085536;28;20022;-71
2021/07/09 05:54:27;;;;;;;;;;;18.00;99.90;;;;;;5087420;28;19924;-71
2021/07/09 05:56:54;;;;;;;;;;;18.10;99.90;;;;;;5076454;28;20363;-71
2021/07/09 05:59:21;;;;;;;;;;;18.10;99.90;;;;;;5078685;28;20299;-71
2021/07/09 06:01:48;;;;;;;;;;;18.10;99.90;;;;;;5075333;28;19928;-72
2021/07/09 06:04:15;;;;;;;;;;;18.10;99.90;;;;;;5075914;28;19943;-72
2021/07/09 06:06:42;;;;;;;;;;;18.10;99.90;;;;;;5088930;28;19925;-72
2021/07/09 06:09:09;;;;;;;;;;;18.10;99.90;;;;;;5086470;28;20294;-71
2021/07/09 06:11:36;;;;;;;;;;;18.20;99.90;;;;;;5075824;28;19936;-71
2021/07/09 06:14:03;;;;;;;;;;;18.20;99.90;;;;;;5087707;28;20371;-72
2021/07/09 06:16:30;;;;;;;;;;;18.10;99.90;;;;;;5085604;28;19924;-71
2021/07/09 06:18:58;;;;;;;;;;;18.20;99.90;;;;;;5080199;28;20441;-72
2021/07/09 06:21:25;;;;;;;;;;;18.30;99.90;;;;;;5088399;28;19963;-71
2021/07/09 06:23:52;;;;;;;;;;;18.30;99.90;;;;;;5085484;28;19924;-71
2021/07/09 06:26:19;;;;;;;;;;;18.20;99.90;;;;;;5112311;27;20298;-72
2021/07/09 06:28:46;;;;;;;;;;;18.20;99.90;;;;;;5088537;28;19932;-70
2021/07/09 06:31:13;;;;;;;;;;;18.20;99.90;;;;;;5090806;28;20263;-72
2021/07/09 06:33:40;;;;;;;;;;;18.20;99.90;;;;;;5091068;28;20334;-70
2021/07/09 06:36:07;;;;;;;;;;;18.10;99.90;;;;;;5088652;28;19924;-71
2021/07/09 06:38:33;;;;;;;;;;;18.10;99.90;;;;;;5087610;28;20400;-71
2021/07/09 06:41:00;;;;;;;;;;;18.20;99.90;;;;;;5081194;28;19936;-72
2021/07/09 06:43:27;;;;;;;;;;;18.30;99.90;;;;;;5086709;28;19935;-72
2021/07/09 06:45:54;;;;;;;;;;;18.30;99.90;;;;;;5076548;28;19929;-72
2021/07/09 06:48:21;;;;;;;;;;;18.40;99.90;;;;;;5089434;28;19928;-75
2021/07/09 06:50:48;;;;;;;;;;;18.50;99.90;;;;;;5086412;28;19932;-74
2021/07/09 06:53:15;;;;;;;;;;;18.50;99.90;;;;;;5084386;28;19931;-74
2021/07/09 06:55:42;;;;;;;;;;;18.70;99.90;;;;;;5088088;28;19928;-74
2021/07/09 06:58:09;;;;;;;;;;;18.90;99.90;;;;;;5087355;28;19969;-73
2021/07/09 07:00:37;;;;;;;;;;;19.00;99.90;;;;;;5083387;28;19925;-73
2021/07/09 07:03:05;;;;;;;;;;;19.10;99.90;;;;;;5086675;28;20271;-72
2021/07/09 07:05:32;;;;;;;;;;;19.30;99.90;;;;;;5083350;28;20205;-73
2021/07/09 07:08:15;;;;;;;;;;;19.20;99.90;;;;;;5080246;28;19925;-72
2021/07/09 07:10:42;;;;;;;;;;;19.30;99.90;;;;;;5087204;28;19940;-73
2021/07/09 07:13:09;;;;;;;;;;;19.20;99.90;;;;;;5092288;28;19928;-72
2021/07/09 07:15:36;;;;;;;;;;;19.40;99.90;;;;;;5090441;28;19932;-73
2021/07/09 07:18:08;;;;;;;;;;;19.60;99.90;;;;;;5078754;28;20031;-73
2021/07/09 07:20:36;;;;;;;;;;;19.30;99.90;;;;;;5077246;28;19932;-73
2021/07/09 07:23:03;;;;;;;;;;;19.10;99.90;;;;;;5079818;28;19993;-73
2021/07/09 07:25:29;;;;;;;;;;;19.00;99.90;;;;;;5080752;28;19927;-73
2021/07/09 07:27:56;;;;;;;;;;;18.90;99.90;;;;;;5078536;28;19932;-73
2021/07/09 07:30:23;;;;;;;;;;;19.00;99.90;;;;;;5083814;28;20301;-73
2021/07/09 07:32:50;;;;;;;;;;;19.10;99.90;;;;;;5081198;28;19939;-73
2021/07/09 07:35:17;;;;;;;;;;;19.10;99.90;;;;;;5080611;28;19997;-73
2021/07/09 07:37:44;;;;;;;;;;;19.10;99.90;;;;;;5078131;28;20007;-72
2021/07/09 07:40:11;;;;;;;;;;;19.00;99.90;;;;;;5112194;27;19982;-73
2021/07/09 07:42:37;;;;;;;;;;;19.00;99.90;;;;;;5078605;28;19932;-73
2021/07/09 07:45:04;;;;;;;;;;;19.30;99.90;;;;;;5082621;28;19932;-73
2021/07/09 07:47:31;;;;;;;;;;;18.90;99.90;;;;;;5082590;28;19933;-73
2021/07/09 07:49:58;;;;;;;;;;;18.90;99.90;;;;;;5080467;28;20347;-73
2021/07/09 07:52:25;;;;;;;;;;;18.90;99.90;;;;;;5082406;28;19989;-73
2021/07/09 07:54:52;;;;;;;;;;;18.90;99.90;;;;;;5081145;28;19924;-73
2021/07/09 07:57:19;;;;;;;;;;;18.90;99.90;;;;;;5081627;28;19957;-73
2021/07/09 07:59:46;;;;;;;;;;;19.10;99.90;;;;;;5077415;28;19953;-72
2021/07/09 08:02:13;;;;;;;;;;;19.10;99.90;;;;;;5080966;28;21935;-73
2021/07/09 08:04:40;;;;;;;;;;;19.20;99.90;;;;;;5078407;28;19931;-73
2021/07/09 08:07:08;;;;;;;;;;;19.20;99.90;;;;;;5082292;28;19932;-73
2021/07/09 08:09:35;;;;;;;;;;;19.30;99.90;;;;;;5078047;28;19936;-73
2021/07/09 08:12:03;;;;;;;;;;;19.40;99.90;;;;;;5079638;28;19942;-73
2021/07/09 08:14:29;;;;;;;;;;;19.60;99.90;;;;;;5077903;28;19969;-73
2021/07/09 08:16:56;;;;;;;;;;;19.60;99.90;;;;;;5080172;28;19973;-72
2021/07/09 08:19:23;;;;;;;;;;;19.70;99.90;;;;;;5078114;28;19932;-73
2021/07/09 08:21:51;;;;;;;;;;;19.70;99.90;;;;;;5079434;28;19955;-73
2021/07/09 08:24:18;;;;;;;;;;;19.80;99.90;;;;;;5080080;28;19932;-73
2021/07/09 08:26:45;;;;;;;;;;;19.80;99.90;;;;;;5080962;28;19939;-73
2021/07/09 08:29:12;;;;;;;;;;;19.80;99.90;;;;;;5075467;28;20611;-73
2021/07/09 08:31:50;;;;;;;;;;;19.80;99.90;;;;;;5075804;28;20379;-72
2021/07/09 08:34:17;;;;;;;;;;;19.90;99.90;;;;;;5091053;27;19935;-73
2021/07/09 08:36:44;;;;;;;;;;;20.00;99.90;;;;;;5076310;28;19956;-72
2021/07/09 08:39:15;;;;;;;;;;;20.00;99.90;;;;;;5075521;28;20329;-72
2021/07/09 08:41:44;;;;;;;;;;;20.00;99.90;;;;;;5076164;28;20015;-73
2021/07/09 08:44:11;;;;;;;;;;;20.10;99.90;;;;;;5108107;27;19932;-72
2021/07/09 08:46:38;;;;;;;;;;;20.20;99.90;;;;;;5080533;28;19936;-73
2021/07/09 08:49:07;;;;;;;;;;;20.20;99.90;;;;;;5078688;28;19966;-72
2021/07/09 08:51:35;;;;;;;;;;;20.10;99.90;;;;;;5079685;28;19932;-73
2021/07/09 08:54:02;;;;;;;;;;;20.20;99.90;;;;;;5080646;28;20314;-72
2021/07/09 08:56:29;;;;;;;;;;;20.40;99.90;;;;;;5079624;28;20583;-73
2021/07/09 08:58:56;;;;;;;;;;;20.50;99.90;;;;;;5080735;28;19923;-72
2021/07/09 09:01:22;;;;;;;;;;;20.60;99.90;;;;;;5080825;28;20343;-72
2021/07/09 09:04:01;;;;;;;;;;;20.60;99.90;;;;;;5076705;28;20018;-72
2021/07/09 09:06:28;;;;;;;;;;;20.60;99.90;;;;;;5077107;28;19932;-72
2021/07/09 09:08:55;;;;;;;;;;;20.60;99.90;;;;;;5076344;28;19956;-72
2021/07/09 09:11:22;;;;;;;;;;;20.80;99.90;;;;;;5081200;28;19927;-72
2021/07/09 09:13:48;;;;;;;;;;;20.80;99.90;;;;;;5077011;28;19970;-72
2021/07/09 09:16:16;;;;;;;;;;;20.80;99.90;;;;;;5078808;28;19932;-73
2021/07/09 09:18:44;;;;;;;;;;;20.80;99.90;;;;;;5076236;28;20938;-72
2021/07/09 09:21:15;;;;;;;;;;;20.90;99.90;;;;;;5080112;28;20013;-72
2021/07/09 09:23:49;;;;;;;;;;;20.80;99.90;;;;;;5076774;28;20751;-72
2021/07/09 09:26:37;;;;;;;;;;;20.80;99.90;;;;;;5080229;28;20343;-72
2021/07/09 09:29:04;;;;;;;;;;;20.80;99.90;;;;;;5076618;28;19947;-72
2021/07/09 09:31:34;;;;;;;;;;;20.80;99.90;;;;;;5077107;28;19932;-72
2021/07/09 09:34:02;;;;;;;;;;;20.90;99.90;;;;;;5075411;28;20313;-72
2021/07/09 09:36:30;;;;;;;;;;;21.10;99.90;;;;;;5078681;28;20603;-72
2021/07/09 09:39:02;;;;;;;;;;;21.20;99.90;;;;;;5081025;28;20651;-72
2021/07/09 09:41:29;;;;;;;;;;;21.30;99.90;;;;;;5077417;28;19928;-73
2021/07/09 09:44:12;;;;;;;;;;;21.30;99.90;;;;;;5079357;28;20369;-72
2021/07/09 09:46:39;;;;;;;;;;;21.20;99.90;;;;;;5078301;28;19954;-73
2021/07/09 09:49:11;;;;;;;;;;;21.50;99.90;;;;;;5077688;28;19935;-72
2021/07/09 09:51:38;;;;;;;;;;;21.80;99.90;;;;;;5081320;28;21027;-73
2021/07/09 09:54:09;;;;;;;;;;;21.90;99.90;;;;;;5080611;28;20309;-73
2021/07/09 09:56:41;;;;;;;;;;;21.90;99.90;;;;;;5077279;28;20010;-73
2021/07/09 09:59:11;;;;;;;;;;;21.90;99.90;;;;;;5078556;28;19993;-73
2021/07/09 10:01:44;;;;;;;;;;;21.90;99.90;;;;;;5077479;28;19936;-73
2021/07/09 10:04:11;;;;;;;;;;;21.90;99.90;;;;;;5076708;28;19933;-73
2021/07/09 10:06:38;;;;;;;;;;;21.90;99.90;;;;;;5075561;28;19932;-73
2021/07/09 10:09:05;;;;;;;;;;;22.00;99.90;;;;;;5077598;28;20005;-72
2021/07/09 10:11:32;;;;;;;;;;;22.00;99.90;;;;;;5077278;28;19939;-73
2021/07/09 10:13:59;;;;;;;;;;;21.80;99.90;;;;;;5076845;28;19991;-73
2021/07/09 10:16:26;;;;;;;;;;;21.90;99.90;;;;;;5079205;28;20627;-72
2021/07/09 10:18:54;;;;;;;;;;;22.00;99.90;;;;;;5085273;28;19955;-73
2021/07/09 10:21:21;;;;;;;;;;;22.20;99.90;;;;;;5087888;28;19977;-73
2021/07/09 10:23:48;;;;;;;;;;;21.90;99.90;;;;;;5089551;28;20808;-72
2021/07/09 10:26:18;;;;;;;;;;;21.70;99.90;;;;;;5087145;28;19931;-72
2021/07/09 10:29:08;;;;;;;;;;;21.80;99.90;;;;;;5088240;28;19935;-72
2021/07/09 10:31:35;;;;;;;;;;;22.00;99.90;;;;;;5081124;28;19935;-74
2021/07/09 10:34:21;;;;;;;;;;;21.70;99.90;;;;;;5086058;28;19940;-72
2021/07/09 10:36:53;;;;;;;;;;;22.00;99.90;;;;;;5090698;28;19928;-72
2021/07/09 10:39:34;;;;;;;;;;;21.80;99.90;;;;;;5089389;28;19988;-72
2021/07/09 10:42:20;;;;;;;;;;;21.60;99.90;;;;;;5086667;28;20416;-72
2021/07/09 10:44:57;;;;;;;;;;;21.80;99.90;;;;;;5086930;28;20268;-72
2021/07/09 10:47:44;;;;;;;;;;;21.90;99.90;;;;;;5091161;28;19932;-72
2021/07/09 10:50:12;;;;;;;;;;;21.90;99.90;;;;;;5084166;28;20572;-72
2021/07/09 10:52:45;;;;;;;;;;;21.80;99.90;;;;;;5087250;28;19932;-72
2021/07/09 10:55:24;;;;;;;;;;;21.70;99.90;;;;;;5088518;28;20006;-72
2021/07/09 10:58:06;;;;;;;;;;;21.70;99.90;;;;;;5087976;28;19943;-72
2021/07/09 11:01:00;;;;;;;;;;;21.80;99.90;;;;;;5085256;28;20036;-72
2021/07/09 11:03:32;;;;;;;;;;;22.20;99.90;;;;;;5106604;27;19954;-76
2021/07/09 11:06:14;;;;;;;;;;;22.30;99.90;;;;;;5094300;28;19939;-75
2021/07/09 11:08:55;;;;;;;;;;;21.90;99.90;;;;;;5093179;28;19932;-76
2021/07/09 11:11:28;;;;;;;;;;;21.70;99.90;;;;;;5091828;28;19932;-75
2021/07/09 11:14:04;;;;;;;;;;;21.40;99.90;;;;;;5094030;28;19950;-74
2021/07/09 11:17:00;;;;;;;;;;;21.50;99.90;;;;;;5090566;28;19939;-74
2021/07/09 11:19:32;;;;;;;;;;;21.50;99.90;;;;;;5090444;28;20022;-74
2021/07/09 11:22:10;;;;;;;;;;;21.50;99.90;;;;;;5091614;28;19994;-76
2021/07/09 11:24:53;;;;;;;;;;;21.50;99.90;;;;;;5090798;28;19928;-74
2021/07/09 11:27:25;;;;;;;;;;;21.70;99.90;;;;;;5088881;28;19936;-74
2021/07/09 11:29:59;;;;;;;;;;;21.50;99.90;;;;;;5090227;28;19939;-74
2021/07/09 11:32:31;;;;;;;;;;;21.50;99.90;;;;;;5090753;28;19932;-74
2021/07/09 11:34:58;;;;;;;;;;;21.50;99.90;;;;;;5090604;28;21633;-75
2021/07/09 11:37:29;;;;;;;;;;;21.50;99.90;;;;;;5093383;28;19939;-76
2021/07/09 11:40:01;;;;;;;;;;;21.70;99.90;;;;;;5089628;28;19950;-74
2021/07/09 11:42:27;;;;;;;;;;;21.60;99.90;;;;;;5087329;28;21053;-74
2021/07/09 11:44:58;;;;;;;;;;;22.00;99.90;;;;;;5090344;28;19932;-74
2021/07/09 11:47:29;;;;;;;;;;;22.20;99.90;;;;;;5087940;28;19939;-73
2021/07/09 11:50:00;;;;;;;;;;;22.20;99.90;;;;;;5090739;28;19927;-73
2021/07/09 11:52:29;;;;;;;;;;;22.10;99.20;;;;;;5089785;28;19935;-73
2021/07/09 11:54:56;;;;;;;;;;;22.00;99.90;;;;;;5091057;28;19935;-73
2021/07/09 11:57:25;;;;;;;;;;;22.10;99.90;;;;;;5087675;28;19934;-74
2021/07/09 12:00:08;;;;;;;;;;;22.00;99.90;;;;;;5091440;28;20018;-75
2021/07/09 12:02:35;;;;;;;;;;;22.00;99.90;;;;;;5091354;28;19936;-74
2021/07/09 12:05:23;;;;;;;;;;;22.10;99.90;;;;;;5090098;28;19931;-74
2021/07/09 12:07:51;;;;;;;;;;;22.40;99.90;;;;;;5089040;28;20019;-76
2021/07/09 12:10:22;;;;;;;;;;;22.70;99.90;;;;;;5092582;28;19928;-77
2021/07/09 12:12:51;;;;;;;;;;;22.60;99.90;;;;;;5093297;28;19928;-78
2021/07/09 12:15:27;;;;;;;;;;;22.60;99.90;;;;;;5092319;28;19938;-78
2021/07/09 12:18:01;;;;;;;;;;;22.40;99.90;;;;;;5090096;28;19931;-75
2021/07/09 12:20:41;;;;;;;;;;;22.20;99.90;;;;;;5089225;28;19932;-73
2021/07/09 12:23:15;;;;;;;;;;;22.10;99.90;;;;;;5087305;28;20683;-75
2021/07/09 12:25:44;;;;;;;;;;;21.80;99.90;;;;;;5087763;28;19932;-75
2021/07/09 12:28:12;;;;;;;;;;;21.40;99.90;;;;;;5086722;27;19939;-74
2021/07/09 12:30:46;;;;;;;;;;;21.40;99.90;;;;;;5086549;28;19940;-73
2021/07/09 12:33:14;;;;;;;;;;;21.30;99.90;;;;;;5083312;28;20039;-73
2021/07/09 12:35:56;;;;;;;;;;;19.60;99.90;;;;;;5081489;28;19959;-73
2021/07/09 12:38:22;;;;;;;;;;;18.70;99.90;;;;;;5079207;28;20343;-72
2021/07/09 12:40:51;;;;;;;;;;;18.20;99.90;;;;;;5082160;28;20334;-73
2021/07/09 12:43:52;;;;;;;;;;;19.00;99.90;;;;;;5079455;28;19978;-73
2021/07/09 12:46:26;;;;;;;;;;;21.20;99.90;;;;;;5086227;28;19935;-73
2021/07/09 12:48:55;;;;;;;;;;;23.70;99.90;;;;;;5079610;28;19931;-74
2021/07/09 12:51:27;;;;;;;;;;;20.20;99.90;;;;;;5090847;28;19935;-73
2021/07/09 12:54:04;;;;;;;;;;;19.20;99.90;;;;;;5089508;28;20414;-76
2021/07/09 12:56:35;;;;;;;;;;;19.20;99.90;;;;;;5087848;28;19973;-76
2021/07/09 12:59:09;;;;;;;;;;;18.70;99.90;;;;;;5076501;28;20429;-76
2021/07/09 13:01:37;;;;;;;;;;;18.50;99.90;;;;;;5089361;28;19936;-73
2021/07/09 13:04:18;;;;;;;;;;;18.80;99.90;;;;;;5086453;28;20248;-73
2021/07/09 13:06:45;;;;;;;;;;;18.80;99.90;;;;;;5088818;28;20185;-73
2021/07/09 13:09:13;;;;;;;;;;;18.90;99.90;;;;;;5080942;28;19935;-72
2021/07/09 13:11:42;;;;;;;;;;;19.00;99.90;;;;;;5083429;28;19928;-73
2021/07/09 13:14:08;;;;;;;;;;;18.80;99.90;;;;;;5088000;28;19928;-73
2021/07/09 13:16:49;;;;;;;;;;;18.20;99.90;;;;;;5084269;28;19932;-73
2021/07/09 13:19:27;;;;;;;;;;;18.20;99.90;;;;;;5113546;27;19975;-73
2021/07/09 13:21:55;;;;;;;;;;;18.10;99.90;;;;;;5088124;28;19928;-75
2021/07/09 13:24:38;;;;;;;;;;;18.10;99.90;;;;;;5088607;28;20319;-73
2021/07/09 13:27:35;;;;;;;;;;;18.10;99.90;;;;;;5086214;28;19927;-73
2021/07/09 13:30:04;;;;;;;;;;;18.00;99.90;;;;;;5107193;27;19989;-73
2021/07/09 13:32:40;;;;;;;;;;;18.20;99.90;;;;;;5088901;28;19924;-73
2021/07/09 13:35:16;;;;;;;;;;;18.30;99.90;;;;;;5084068;28;19924;-72
2021/07/09 13:37:44;;;;;;;;;;;18.60;99.90;;;;;;5087685;28;19934;-73
2021/07/09 13:40:11;;;;;;;;;;;18.80;99.90;;;;;;5075838;28;19925;-73
2021/07/09 13:42:42;;;;;;;;;;;19.00;99.90;;;;;;5086556;28;19931;-73
2021/07/09 13:45:10;;;;;;;;;;;19.00;99.90;;;;;;5085245;28;20401;-74
2021/07/09 13:47:40;;;;;;;;;;;19.30;99.90;;;;;;5085123;28;19967;-74
2021/07/09 13:50:07;;;;;;;;;;;19.70;99.90;;;;;;5086880;28;19924;-74
2021/07/09 13:52:34;;;;;;;;;;;20.20;99.90;;;;;;5087680;28;19928;-74
2021/07/09 13:55:02;;;;;;;;;;;20.30;99.90;;;;;;5089628;28;19924;-74
2021/07/09 13:57:29;;;;;;;;;;;21.20;99.90;;;;;;5083237;28;20383;-74
2021/07/09 13:59:56;;;;;;;;;;;21.20;99.90;;;;;;5087352;28;19924;-74
2021/07/09 14:02:23;;;;;;;;;;;21.10;99.90;;;;;;5089169;28;19924;-73
2021/07/09 14:04:50;;;;;;;;;;;21.20;99.90;;;;;;5086082;28;19924;-74
2021/07/09 14:07:17;;;;;;;;;;;21.30;99.90;;;;;;5075058;28;19924;-74
2021/07/09 14:09:44;;;;;;;;;;;21.10;99.90;;;;;;5088893;28;19950;-74
2021/07/09 14:12:10;;;;;;;;;;;21.10;99.90;;;;;;5086671;28;19924;-75
2021/07/09 14:14:38;;;;;;;;;;;21.20;99.90;;;;;;5074183;28;20267;-73
2021/07/09 14:17:05;;;;;;;;;;;21.20;99.90;;;;;;5078936;28;19924;-74
2021/07/09 14:19:34;;;;;;;;;;;21.30;99.90;;;;;;5078322;28;19931;-73
2021/07/09 14:22:04;;;;;;;;;;;21.30;99.90;;;;;;5087370;28;19924;-73
2021/07/09 14:24:31;;;;;;;;;;;21.50;99.90;;;;;;5085908;28;19924;-72
2021/07/09 14:26:58;;;;;;;;;;;21.30;99.90;;;;;;5085945;28;19970;-73